Enterline, Pennsylvania
Current Conditions -  °F | °C
As of 11:38 AM on Monday 26 Jan 2015 (Local Time) from KMUI Reporting Station
Haze Haze  
Wind Chill:   Ceiling: 2400
Heat Index: 21°   Visibility: 5mi
Dew Point: 16°   Wind: 13mph
Humidity: 80%   Direction: 70°ENE
Pressure: 29.86"   Gusts: 18mph
Location:  40.4949°N, 76.8115°W
Report Text: KMUI 261638Z AUTO 07011G16KT 5SM HZ OVC024 M06/M09 A2986 RMK AO2
Loading
Personal Weather Stations






























Interactive Weather Map New forecast layout! Learn more

10-Day Weather Forecast

Advertisements
Track Severe Weather on mobile